Terminal Aerodrome Forecast
Issued by NWS

Home | Current Version | Previous Version | Text Only | Print | Product List | Glossary On
Versions: 1 2 3 4 5 6 7 8 9 10 11 12 13 14
677
FTUS42 TJSJ 271612 AAA
TAFNCM
TAF AMD
TNCM 271612Z 2716/2812 10013KT P6SM VCSH SCT020
      TEMPO 2716/2717 -SHRA BKN020
     FM272000 08012KT P6SM SCT020
     FM272300 07008KT P6SM FEW018=

USA.gov is the U.S. government's official web portal to all federal, state and local government web resources and services.